Skip Navigation LinksHome page > Weather > Current weather Skip Navigation Links

Current Weather

Eureka, Nunavut

For information only: do not use for flight planning or navigation.
Latest weather
Observation time Monday, October 18, 2021 3:00 PM CDT
Local time Monday, October 18, 2021 3:59 PM CDT
Flight conditions Visual Meteorological Conditions
Winds
Wind direction Southeast (140°)
Wind speed 18 mph
Visibility 15 mi.
Present weather drifting snow
Sky condition
Ceiling 12,000 ft. broken clouds
Cloud layer broken clouds 12,000 ft.
Cloud layer overcast 17,000 ft.
Temperature 28°F
Dewpoint 21°F
Altimeter 29.78 in.Hg
Derived measurements
Relative humidity 74%
Wind chill 16°F
Density altitude -1827 ft.
Sea-level pressure 29.81 in.Hg
METAR CWEU 182000Z 14016KT 15SM DRSN BKN120 OVC170 M02/M06 A2978 RMK AC7AC1 SLP096

Settings

Location code

InnerDrive.Weather 4.0.6770.0 Release CLR 4.0.30319.42000
Copyright ©2018 Inner Drive Technology. All rights reserved. Portions Copyright ©1986-2018 David Braverman.

Find weather

Site navigation


Skip Navigation Links

Place info

Page info

PayPal - The safer, easier way to pay online!

Return home.

Copyright ©2021 Inner Drive Technology. Purveyors of fine, hand-crafted computer software. Page printed 2021-10-18T20:59:49 UTC.